Current Weather

John F Kennedy Intl

New York, New York (KJFK)

Report from: Sunday, November 27, 2022 3:51 AM EST
Current time: Sunday, November 27, 2022 4:17 AM EST

Nearby weather
Weather history
Weather forecast

Temperature7.8°C (46.0°F)
Wind chill5.0°C (41.0°F)
Dew point0.6°C (33.1°F)
Winds 9 kts (4.6 m/s, 10.4 mph) West-Southwest (250°)
Visibility10 mi. (16.1 km)
Clouds Ceiling: Broken clouds 25,900 ft. (7,894 m)
Altimeter29.94 in.Hg (1014 mB)
Relative humidity60 %
Density altitude-789 ft. (-241 m)
Sea-level pressure101.4 kPa (1014 mB, 29.93 in.Hg)
Remarks Automated weather observing station with precipitation discriminator
Pressure falling more quickly
Flight conditions Visual Meteorological Conditions
Raw dataKJFK 270851Z 25009KT 10SM BKN259 08/01 A2994 RMK AO2 SLP137 T00780006 58010
An error has occurred. This application may no longer respond until reloaded. Reload 🗙